createdAt,value
2019-04-20T00:02:18.889Z,21.77
2019-04-20T00:04:49.475Z,19.40
2019-04-20T00:07:24.582Z,19.27
2019-04-20T00:10:06.266Z,15.23
2019-04-20T00:12:44.201Z,17.13
2019-04-20T00:15:07.216Z,19.93
2019-04-20T00:17:47.695Z,14.93
2019-04-20T00:20:20.722Z,18.73
2019-04-20T00:22:53.264Z,19.67
2019-04-20T00:25:41.705Z,16.20
2019-04-20T00:28:25.430Z,19.07
2019-04-20T00:31:04.155Z,16.87
2019-04-20T00:33:27.013Z,15.00
2019-04-20T00:35:48.566Z,19.43
2019-04-20T00:38:22.742Z,18.87
2019-04-20T00:41:00.060Z,17.30
2019-04-20T00:43:32.904Z,15.90
2019-04-20T00:46:08.259Z,17.17
2019-04-20T00:48:48.676Z,12.20
2019-04-20T00:51:32.678Z,15.37
2019-04-20T00:53:51.223Z,17.17
2019-04-20T00:56:22.370Z,14.70
2019-04-20T00:59:09.238Z,15.60
2019-04-20T01:01:50.169Z,14.00
2019-04-20T01:04:20.241Z,15.17
2019-04-20T01:07:06.066Z,20.20
2019-04-20T01:09:47.766Z,16.87
2019-04-20T01:12:26.034Z,15.23
2019-04-20T01:15:01.074Z,13.27
2019-04-20T01:17:31.897Z,13.20
2019-04-20T01:20:08.159Z,13.93
2019-04-20T01:22:48.191Z,19.20
2019-04-20T01:25:24.249Z,17.10
2019-04-20T01:28:09.080Z,15.93
2019-04-20T01:30:34.016Z,13.47
2019-04-20T01:33:16.364Z,15.60
2019-04-20T01:35:51.606Z,15.57
2019-04-20T01:38:29.606Z,19.70
2019-04-20T01:40:46.327Z,22.50
2019-04-20T01:43:20.482Z,16.80
2019-04-20T01:46:01.401Z,18.17
2019-04-20T01:48:33.661Z,17.93
2019-04-20T01:51:07.274Z,19.77
2019-04-20T01:54:03.911Z,20.70
2019-04-20T01:56:37.403Z,19.10
2019-04-20T01:59:24.176Z,20.67
2019-04-20T02:01:46.831Z,18.43
2019-04-20T02:04:33.939Z,18.63
2019-04-20T02:07:03.834Z,18.17
2019-04-20T02:09:43.279Z,17.53
2019-04-20T02:12:15.446Z,19.50
2019-04-20T02:14:51.799Z,18.93
2019-04-20T02:17:28.372Z,16.43
2019-04-20T02:20:10.480Z,19.80
2019-04-20T02:22:47.668Z,14.83
2019-04-20T02:25:03.824Z,15.33
2019-04-20T02:27:43.263Z,19.70
2019-04-20T02:30:51.743Z,16.83
2019-04-20T02:33:32.250Z,17.40
2019-04-20T02:36:04.836Z,16.37
2019-04-20T02:38:48.905Z,17.97
2019-04-20T02:41:09.875Z,15.03
2019-04-20T02:46:14.830Z,15.77
2019-04-20T02:49:05.439Z,16.50
2019-04-20T02:51:23.555Z,17.07
2019-04-20T02:54:11.455Z,14.30
2019-04-20T02:56:45.262Z,19.60
2019-04-20T02:59:32.944Z,17.20
2019-04-20T03:01:36.046Z,17.93
2019-04-20T03:03:54.597Z,13.60
2019-04-20T03:06:36.569Z,15.50
2019-04-20T03:09:22.482Z,15.13
2019-04-20T03:14:24.018Z,13.67
2019-04-20T03:17:08.736Z,15.50
2019-04-20T03:19:29.984Z,17.47
2019-04-20T03:22:19.194Z,19.80
2019-04-20T03:24:50.040Z,16.33
2019-04-20T03:27:20.910Z,19.73
2019-04-20T03:30:40.258Z,17.43
2019-04-20T03:35:29.880Z,19.83
2019-04-20T03:38:00.170Z,17.73
2019-04-20T03:40:24.452Z,18.87
2019-04-20T03:42:46.535Z,18.73
2019-04-20T03:45:22.663Z,22.00
2019-04-20T03:48:06.147Z,16.67
2019-04-20T03:50:49.202Z,21.93
2019-04-20T03:53:22.976Z,18.47
2019-04-20T03:55:56.414Z,21.43
2019-04-20T03:58:37.850Z,16.63
2019-04-20T04:01:43.091Z,17.80
2019-04-20T04:04:05.185Z,20.23
2019-04-20T04:06:29.561Z,17.87
2019-04-20T04:09:10.114Z,19.40
2019-04-20T04:11:48.952Z,18.33
2019-04-20T04:14:07.107Z,16.80
2019-04-20T04:16:45.775Z,17.20
2019-04-20T04:19:21.521Z,16.17
2019-04-20T04:22:04.177Z,19.33
2019-04-20T04:24:31.603Z,18.63
2019-04-20T04:27:09.270Z,19.67
2019-04-20T04:29:52.379Z,22.27
2019-04-20T04:32:46.931Z,22.33
2019-04-20T04:35:09.220Z,22.70
2019-04-20T04:37:45.910Z,20.53
2019-04-20T04:40:31.702Z,22.07
2019-04-20T04:42:58.428Z,18.70
2019-04-20T04:45:14.510Z,17.97
2019-04-20T04:47:47.333Z,25.07
2019-04-20T04:50:24.890Z,19.80
2019-04-20T04:53:04.502Z,21.03
2019-04-20T04:55:42.945Z,20.20
2019-04-20T04:58:04.492Z,15.67
2019-04-20T05:00:38.840Z,16.20
2019-04-20T05:03:28.495Z,16.67
2019-04-20T05:06:06.562Z,16.97
2019-04-20T05:08:31.720Z,13.60
2019-04-20T05:11:01.005Z,17.67
2019-04-20T05:13:43.924Z,15.70
2019-04-20T05:16:27.628Z,16.00
2019-04-20T05:19:11.915Z,18.27
2019-04-20T05:22:01.314Z,16.97
2019-04-20T05:24:33.808Z,15.13
2019-04-20T05:27:17.702Z,16.87
2019-04-20T05:29:32.455Z,17.83
2019-04-20T05:32:07.898Z,16.80
2019-04-20T05:34:58.165Z,16.10
2019-04-20T05:37:57.358Z,17.40
2019-04-20T05:40:13.979Z,19.20
2019-04-20T05:42:44.189Z,16.83
2019-04-20T05:45:16.676Z,14.60
2019-04-20T05:47:48.546Z,14.83
2019-04-20T05:50:27.625Z,12.30
2019-04-20T05:53:07.253Z,14.40
2019-04-20T05:55:40.031Z,15.37
2019-04-20T05:58:17.931Z,12.67
2019-04-20T06:00:56.803Z,12.93
2019-04-20T06:03:23.346Z,14.17
2019-04-20T06:06:05.125Z,14.73
2019-04-20T06:11:09.339Z,13.20
2019-04-20T06:13:34.792Z,14.43
2019-04-20T06:16:18.677Z,13.17
2019-04-20T06:18:58.220Z,13.80
2019-04-20T06:21:52.888Z,12.43
2019-04-20T06:24:36.310Z,12.70
2019-04-20T06:27:16.109Z,12.27
2019-04-20T06:29:38.067Z,12.13
2019-04-20T06:32:17.394Z,11.97
2019-04-20T06:34:50.094Z,11.87
2019-04-20T06:37:21.318Z,17.07
2019-04-20T06:39:59.083Z,15.07
2019-04-20T06:42:23.481Z,12.93
2019-04-20T06:45:07.064Z,15.10
2019-04-20T06:47:39.314Z,12.80
2019-04-20T06:50:12.858Z,12.87
2019-04-20T06:53:01.916Z,12.73
2019-04-20T06:55:42.973Z,12.33
2019-04-20T06:58:28.028Z,13.20
2019-04-20T07:00:53.441Z,9.73
2019-04-20T07:06:19.483Z,11.53
2019-04-20T07:11:04.354Z,8.27
2019-04-20T07:13:29.778Z,8.13
2019-04-20T07:16:21.635Z,8.13
2019-04-20T07:19:07.644Z,9.17
2019-04-20T07:22:01.881Z,9.37
2019-04-20T07:24:38.467Z,9.60
2019-04-20T07:27:03.960Z,9.10
2019-04-20T07:29:41.114Z,11.03
2019-04-20T07:32:07.621Z,8.17
2019-04-20T07:34:51.327Z,7.87
2019-04-20T07:37:46.637Z,6.93
2019-04-20T07:40:02.676Z,7.77
2019-04-20T07:42:34.833Z,5.80
2019-04-20T07:45:16.433Z,8.73
2019-04-20T07:47:46.591Z,6.40
2019-04-20T07:50:12.910Z,5.30
2019-04-20T07:52:42.877Z,4.27
2019-04-20T07:57:55.026Z,6.23
2019-04-20T08:00:48.440Z,7.00
2019-04-20T08:03:24.693Z,6.60
2019-04-20T08:05:46.776Z,7.80
2019-04-20T08:08:37.699Z,8.90
2019-04-20T08:11:00.754Z,7.60
2019-04-20T08:13:49.030Z,9.00
2019-04-20T08:16:25.834Z,8.13
2019-04-20T08:18:55.761Z,7.80
2019-04-20T08:21:29.395Z,7.33
2019-04-20T08:24:02.604Z,9.73
2019-04-20T08:26:23.102Z,6.53
2019-04-20T08:29:01.550Z,7.47
2019-04-20T08:31:47.373Z,6.07
2019-04-20T08:37:05.948Z,6.83
2019-04-20T08:39:55.541Z,4.60
2019-04-20T08:42:16.214Z,5.27
2019-04-20T08:45:03.608Z,5.43
2019-04-20T08:47:37.938Z,4.87
2019-04-20T08:55:29.906Z,3.80
2019-04-20T08:57:45.132Z,4.70
2019-04-20T09:00:28.867Z,3.97
2019-04-20T09:03:07.892Z,3.53
2019-04-20T09:05:47.645Z,4.50
2019-04-20T09:08:16.127Z,3.70
2019-04-20T09:10:59.815Z,7.27
2019-04-20T09:13:40.781Z,3.17
2019-04-20T09:16:13.128Z,5.77
2019-04-20T09:18:57.898Z,3.27
2019-04-20T09:21:51.027Z,4.00
2019-04-20T09:24:52.797Z,4.10
2019-04-20T09:27:21.876Z,4.47
2019-04-20T09:33:14.530Z,5.17
2019-04-20T09:35:47.364Z,5.40
2019-04-20T09:38:29.993Z,4.87
2019-04-20T09:41:09.115Z,4.43
2019-04-20T09:43:30.412Z,3.70
2019-04-20T09:46:06.677Z,6.10
2019-04-20T09:48:42.647Z,6.93
2019-04-20T09:51:30.762Z,4.87
2019-04-20T09:54:12.513Z,2.40
2019-04-20T09:57:09.179Z,4.47
2019-04-20T09:59:57.465Z,5.53
2019-04-20T10:02:31.023Z,4.00
2019-04-20T10:05:17.759Z,4.27
2019-04-20T10:08:06.749Z,3.77
2019-04-20T10:10:41.718Z,5.30
2019-04-20T10:13:15.392Z,6.33
2019-04-20T10:15:59.692Z,4.47
2019-04-20T10:18:45.475Z,5.60
2019-04-20T10:21:23.713Z,4.90
2019-04-20T10:27:08.275Z,3.20
2019-04-20T10:29:47.581Z,5.10
2019-04-20T10:32:37.703Z,5.07
2019-04-20T10:35:23.338Z,4.80
2019-04-20T10:38:11.464Z,4.73
2019-04-20T10:41:04.987Z,3.57
2019-04-20T10:43:49.018Z,3.90
2019-04-20T10:46:31.155Z,5.17
2019-04-20T10:49:13.645Z,5.80
2019-04-20T10:51:51.361Z,4.10
2019-04-20T10:54:24.729Z,5.93
2019-04-20T10:56:57.792Z,8.87
2019-04-20T10:59:31.755Z,2.67
2019-04-20T11:02:05.801Z,3.80
2019-04-20T11:04:38.815Z,6.57
2019-04-20T11:07:12.516Z,7.57
2019-04-20T11:09:46.979Z,3.40
2019-04-20T11:12:20.134Z,4.83
2019-04-20T11:14:54.209Z,4.23
2019-04-20T11:17:29.787Z,3.47
2019-04-20T11:20:01.550Z,3.87
2019-04-20T11:22:34.738Z,2.97
2019-04-20T11:25:08.379Z,3.30
2019-04-20T11:27:40.906Z,6.00
2019-04-20T11:30:16.127Z,6.43
2019-04-20T11:32:49.669Z,4.70
2019-04-20T11:35:27.786Z,4.20
2019-04-20T11:37:57.461Z,4.27
2019-04-20T11:40:30.824Z,3.27
2019-04-20T11:43:03.943Z,6.40
2019-04-20T11:45:36.813Z,3.17
2019-04-20T11:48:09.635Z,3.13
2019-04-20T11:50:43.378Z,4.33
2019-04-20T11:53:17.471Z,4.40
2019-04-20T11:55:52.126Z,2.90
2019-04-20T11:58:26.100Z,4.07
2019-04-20T12:01:08.532Z,4.53
2019-04-20T12:03:47.825Z,3.53
2019-04-20T12:06:10.492Z,4.63
2019-04-20T12:08:44.323Z,3.47
2019-04-20T12:11:26.496Z,4.00
2019-04-20T12:13:54.519Z,3.57
2019-04-20T12:16:27.819Z,3.63
2019-04-20T12:19:02.316Z,3.80
2019-04-20T12:21:35.008Z,3.37
2019-04-20T12:24:07.707Z,3.43
2019-04-20T12:26:40.612Z,2.83
2019-04-20T12:29:16.211Z,4.10
2019-04-20T12:31:51.101Z,3.90
2019-04-20T12:34:24.555Z,3.30
2019-04-20T12:36:58.412Z,2.50
2019-04-20T12:39:31.354Z,5.60
2019-04-20T12:42:08.128Z,3.97
2019-04-20T12:44:41.818Z,4.00
2019-04-20T12:47:14.595Z,2.17
2019-04-20T12:49:47.586Z,5.57
2019-04-20T12:52:20.726Z,6.37
2019-04-20T12:54:54.487Z,6.53
2019-04-20T12:57:28.874Z,5.40
2019-04-20T13:00:03.566Z,6.17
2019-04-20T13:02:37.551Z,2.77
2019-04-20T13:05:11.546Z,3.27
2019-04-20T13:07:49.314Z,3.77
2019-04-20T13:10:21.433Z,2.27
2019-04-20T13:13:04.950Z,2.60
2019-04-20T13:15:44.593Z,6.87
2019-04-20T13:18:23.329Z,5.23
2019-04-20T13:20:58.166Z,2.57
2019-04-20T13:23:31.076Z,5.60
2019-04-20T13:26:05.862Z,3.23
2019-04-20T13:28:39.062Z,3.87
2019-04-20T13:31:11.933Z,5.60
2019-04-20T13:33:45.322Z,5.20
2019-04-20T13:36:18.215Z,3.77
2019-04-20T13:38:51.934Z,3.17
2019-04-20T13:41:25.035Z,3.30
2019-04-20T13:44:00.104Z,5.97
2019-04-20T13:46:33.339Z,4.77
2019-04-20T13:49:07.092Z,2.70
2019-04-20T13:51:40.961Z,3.27
2019-04-20T13:54:17.992Z,3.30
2019-04-20T13:56:50.445Z,6.30
2019-04-20T13:59:35.167Z,5.27
2019-04-20T14:02:12.967Z,3.27
2019-04-20T14:04:56.992Z,3.73
2019-04-20T14:07:31.400Z,5.13
2019-04-20T14:10:05.868Z,7.47
2019-04-20T14:12:50.399Z,3.40
2019-04-20T14:15:13.647Z,3.93
2019-04-20T14:17:46.940Z,4.40
2019-04-20T14:20:22.153Z,4.07
2019-04-20T14:22:55.197Z,5.50
2019-04-20T14:25:29.005Z,4.80
2019-04-20T14:28:02.832Z,2.70
2019-04-20T14:30:38.013Z,4.00
2019-04-20T14:33:10.702Z,4.73
2019-04-20T14:35:43.373Z,4.23
2019-04-20T14:38:16.058Z,3.57
2019-04-20T14:40:50.414Z,3.90
2019-04-20T14:43:24.918Z,2.97
2019-04-20T14:45:58.806Z,3.57
2019-04-20T14:48:34.467Z,4.53
2019-04-20T14:51:08.048Z,3.97
2019-04-20T14:53:41.470Z,6.37
2019-04-20T14:56:15.366Z,3.37
2019-04-20T14:58:51.360Z,3.27
2019-04-20T15:01:28.203Z,6.53
2019-04-20T15:04:06.762Z,3.87
2019-04-20T15:06:38.555Z,7.00
2019-04-20T15:09:11.046Z,4.37
2019-04-20T15:11:45.143Z,4.83
2019-04-20T15:14:18.706Z,4.93
2019-04-20T15:16:52.856Z,5.20
2019-04-20T15:19:33.640Z,6.17
2019-04-20T15:22:09.375Z,4.27
2019-04-20T15:24:42.377Z,4.13
2019-04-20T15:27:16.251Z,5.27
2019-04-20T15:29:50.486Z,3.90
2019-04-20T15:32:23.077Z,5.33
2019-04-20T15:34:57.087Z,5.53
2019-04-20T15:37:30.948Z,5.27
2019-04-20T15:40:06.446Z,4.80
2019-04-20T15:42:53.735Z,7.67
2019-04-20T15:45:15.685Z,5.10
2019-04-20T15:47:49.973Z,4.83
2019-04-20T15:50:23.604Z,4.43
2019-04-20T15:53:00.049Z,6.10
2019-04-20T15:55:37.553Z,3.13
2019-04-20T15:58:08.433Z,4.00
2019-04-20T16:00:42.540Z,5.80
2019-04-20T16:03:23.330Z,6.50
2019-04-20T16:06:01.322Z,6.23
2019-04-20T16:08:36.721Z,6.20
2019-04-20T16:11:11.225Z,5.50
2019-04-20T16:13:49.459Z,7.03
2019-04-20T16:16:19.638Z,7.53
2019-04-20T16:18:52.864Z,13.97
2019-04-20T16:21:28.467Z,6.03
2019-04-20T16:24:04.617Z,8.50
2019-04-20T16:26:49.469Z,7.27
2019-04-20T16:29:17.818Z,10.40
2019-04-20T16:31:52.554Z,27.10
2019-04-20T16:34:25.431Z,5.83
2019-04-20T16:37:02.433Z,9.20
2019-04-20T16:39:36.840Z,6.20
2019-04-20T16:42:12.022Z,4.53
2019-04-20T16:44:47.216Z,4.80
2019-04-20T16:47:20.122Z,4.50
2019-04-20T16:49:55.056Z,4.13
2019-04-20T16:52:30.654Z,5.40
2019-04-20T16:55:04.141Z,5.30
2019-04-20T16:57:37.682Z,5.00
2019-04-20T17:00:11.502Z,5.53
2019-04-20T17:02:46.114Z,14.60
2019-04-20T17:05:19.500Z,9.87
2019-04-20T17:08:00.893Z,7.83
2019-04-20T17:14:27.565Z,14.07
2019-04-20T17:17:49.540Z,7.17
2019-04-20T17:20:34.720Z,6.87
2019-04-20T17:23:17.164Z,7.10
2019-04-20T17:26:03.935Z,38.07
2019-04-20T17:32:33.577Z,6.30
2019-04-20T17:35:55.193Z,8.90
2019-04-20T17:45:07.711Z,18.77
2019-04-20T17:51:22.439Z,107.90
2019-04-20T17:57:19.428Z,36.57
2019-04-20T18:04:05.464Z,21.73
2019-04-20T18:06:43.689Z,34.17
2019-04-20T18:09:34.521Z,80.17
2019-04-20T18:15:06.183Z,89.00
2019-04-20T18:17:58.799Z,79.90
2019-04-20T18:20:38.977Z,36.20
2019-04-20T18:23:24.826Z,26.70
2019-04-20T18:26:11.044Z,28.23
2019-04-20T18:28:56.152Z,27.50
2019-04-20T18:31:13.497Z,29.00
2019-04-20T18:33:51.653Z,33.13
2019-04-20T18:36:38.288Z,20.70
2019-04-20T18:39:38.025Z,27.07
2019-04-20T18:42:27.206Z,27.27
2019-04-20T18:48:15.870Z,41.47
2019-04-20T18:50:35.394Z,42.57
2019-04-20T18:53:05.592Z,43.70
2019-04-20T18:55:45.918Z,40.73
2019-04-20T18:58:15.260Z,35.43
2019-04-20T19:00:51.861Z,44.33
2019-04-20T19:03:29.944Z,45.33
2019-04-20T19:06:02.038Z,44.73
2019-04-20T19:08:40.422Z,30.73
2019-04-20T19:11:16.505Z,24.90
2019-04-20T19:13:51.233Z,25.07
2019-04-20T19:16:46.759Z,19.90
2019-04-20T19:19:27.030Z,24.27
2019-04-20T19:21:54.166Z,28.03
2019-04-20T19:24:29.713Z,35.93
2019-04-20T19:27:08.062Z,31.43
2019-04-20T19:29:44.829Z,37.33
2019-04-20T19:32:34.144Z,30.47
2019-04-20T19:34:57.490Z,21.40
2019-04-20T19:37:28.502Z,33.83
2019-04-20T19:40:10.794Z,35.70
2019-04-20T19:42:45.197Z,29.03
2019-04-20T19:45:37.498Z,33.60
2019-04-20T19:48:04.706Z,30.90
2019-04-20T19:50:44.182Z,35.40
2019-04-20T19:53:22.724Z,33.97
2019-04-20T19:55:48.037Z,28.17
2019-04-20T19:58:25.254Z,29.30
2019-04-20T20:00:59.577Z,21.13
2019-04-20T20:03:39.590Z,20.93
2019-04-20T20:06:22.512Z,19.67
2019-04-20T20:08:56.001Z,20.97
2019-04-20T20:11:29.894Z,17.80
2019-04-20T20:13:58.464Z,22.17
2019-04-20T20:16:50.463Z,20.03
2019-04-20T20:19:12.097Z,15.90
2019-04-20T20:21:55.502Z,18.87
2019-04-20T20:24:17.454Z,16.33
2019-04-20T20:26:56.704Z,16.10
2019-04-20T20:29:34.255Z,16.73
2019-04-20T20:32:10.365Z,12.03
2019-04-20T20:34:40.463Z,13.87
2019-04-20T20:37:23.733Z,16.07
2019-04-20T20:39:58.465Z,11.90
2019-04-20T20:42:32.942Z,16.47
2019-04-20T20:45:14.305Z,14.70
2019-04-20T20:47:55.076Z,17.93
2019-04-20T20:50:33.765Z,16.90
2019-04-20T20:52:58.689Z,12.27
2019-04-20T20:55:32.201Z,14.80
2019-04-20T20:58:01.941Z,15.13
2019-04-20T21:00:41.158Z,14.70
2019-04-20T21:03:07.438Z,13.20
2019-04-20T21:05:38.233Z,16.33
2019-04-20T21:08:13.775Z,16.53
2019-04-20T21:10:48.089Z,12.80
2019-04-20T21:13:21.471Z,13.30
2019-04-20T21:16:02.841Z,13.03
2019-04-20T21:18:49.003Z,16.37
2019-04-20T21:21:17.682Z,13.47
2019-04-20T21:23:48.125Z,15.40
2019-04-20T21:26:21.768Z,15.67
2019-04-20T21:28:48.017Z,17.70
2019-04-20T21:31:24.278Z,12.60
2019-04-20T21:33:57.211Z,17.10
2019-04-20T21:36:31.769Z,13.33
2019-04-20T21:39:08.681Z,17.17
2019-04-20T21:41:50.928Z,14.33
2019-04-20T21:44:25.057Z,16.00
2019-04-20T21:46:54.573Z,19.23
2019-04-20T21:49:39.944Z,13.33
2019-04-20T21:52:06.097Z,14.63
2019-04-20T21:54:36.036Z,16.43
2019-04-20T21:57:11.488Z,19.70
2019-04-20T21:59:50.522Z,13.03
2019-04-20T22:02:28.190Z,16.10
2019-04-20T22:04:57.638Z,17.43
2019-04-20T22:07:30.654Z,17.37
2019-04-20T22:10:04.978Z,14.70
2019-04-20T22:12:45.600Z,16.47
2019-04-20T22:15:22.465Z,16.73
2019-04-20T22:17:48.681Z,14.97
2019-04-20T22:20:32.520Z,15.37
2019-04-20T22:23:07.469Z,15.23
2019-04-20T22:25:50.467Z,16.07
2019-04-20T22:28:05.743Z,15.93
2019-04-20T22:30:39.915Z,16.10
2019-04-20T22:33:28.565Z,14.43
2019-04-20T22:36:02.175Z,13.23
2019-04-20T22:38:37.582Z,16.90
2019-04-20T22:41:13.880Z,13.73
2019-04-20T22:43:44.184Z,15.73
2019-04-20T22:46:23.708Z,14.07
2019-04-20T22:49:08.120Z,17.20
2019-04-20T22:51:39.943Z,15.40
2019-04-20T22:54:16.978Z,15.17
2019-04-20T22:56:50.914Z,18.40
2019-04-20T22:59:19.114Z,16.33
2019-04-20T23:01:56.179Z,17.47
2019-04-20T23:04:26.564Z,17.50
2019-04-20T23:07:00.928Z,17.50
2019-04-20T23:09:43.888Z,22.30
2019-04-20T23:12:13.406Z,21.67
2019-04-20T23:14:44.603Z,25.67
2019-04-20T23:17:24.387Z,24.00
2019-04-20T23:19:56.165Z,19.13
2019-04-20T23:22:35.979Z,14.83
2019-04-20T23:25:03.119Z,15.80
2019-04-20T23:27:38.720Z,19.87
2019-04-20T23:30:23.724Z,20.23
2019-04-20T23:32:47.593Z,24.00
2019-04-20T23:35:23.461Z,20.77
2019-04-20T23:38:06.820Z,20.40
2019-04-20T23:40:31.955Z,22.73
2019-04-20T23:43:28.170Z,23.67
2019-04-20T23:46:19.401Z,25.90
2019-04-20T23:48:52.098Z,31.10
2019-04-20T23:51:49.599Z,33.70
2019-04-20T23:54:10.208Z,34.80
2019-04-20T23:56:35.379Z,31.83
2019-04-20T23:59:08.970Z,26.30
